<?xml version="1.0" encoding="UTF-8"?>
<gpx version="1.0" creator="Trackator" xmlns:xsi="http://www.w3.org/2001/XMLSchema-instance" xmlns="http://www.topografix.com/GPX/1/0" xmlns:topografix="http://www.topografix.com/GPX/Private/TopoGrafix/0/1" xsi:schemaLocation="http://www.topografix.com/GPX/1/0 http://www.topografix.com/GPX/1/0/gpx.xsd http://www.topografix.com/GPX/Private/TopoGrafix/0/1 http://www.topografix.com/GPX/Private/TopoGrafix/0/1/topografix.xsd">
<metadata>
<link href="http://www.trackalia.com/trackatorweb.php">
<text>Trackator</text>
</link>
</metadata>
<time>2017-08-20T09:18:19Z</time>
<trk>
<name>Track: </name>
<desc>Running</desc>
<trkseg>
<trkpt lat="53.3489500" lon="18.4380652">
<ele>98</ele>
<time>2017-08-20T09:18:19Z</time>
</trkpt>
<trkpt lat="53.3489500" lon="18.4380652">
<ele>98</ele>
<time>2017-08-20T09:18:21Z</time>
</trkpt>
<trkpt lat="53.3489500" lon="18.4380652">
<ele>98</ele>
<time>2017-08-20T09:18:23Z</time>
</trkpt>
<trkpt lat="53.3489500" lon="18.4380652">
<ele>98</ele>
<time>2017-08-20T09:18:25Z</time>
</trkpt>
<trkpt lat="53.3489500" lon="18.4380652">
<ele>98</ele>
<time>2017-08-20T09:18:27Z</time>
</trkpt>
<trkpt lat="53.3489500" lon="18.4380652">
<ele>98</ele>
<time>2017-08-20T09:18:29Z</time>
</trkpt>
<trkpt lat="53.3489500" lon="18.4380652">
<ele>98</ele>
<time>2017-08-20T09:18:31Z</time>
</trkpt>
<trkpt lat="53.3489500" lon="18.4380652">
<ele>98</ele>
<time>2017-08-20T09:18:33Z</time>
</trkpt>
<trkpt lat="53.3489500" lon="18.4380652">
<ele>98</ele>
<time>2017-08-20T09:18:35Z</time>
</trkpt>
<trkpt lat="53.3489500" lon="18.4380652">
<ele>98</ele>
<time>2017-08-20T09:18:37Z</time>
</trkpt>
<trkpt lat="53.3489500" lon="18.4380652">
<ele>98</ele>
<time>2017-08-20T09:18:39Z</time>
</trkpt>
<trkpt lat="53.3489500" lon="18.4380652">
<ele>98</ele>
<time>2017-08-20T09:18:41Z</time>
</trkpt>
<trkpt lat="53.3489500" lon="18.4380652">
<ele>98</ele>
<time>2017-08-20T09:18:43Z</time>
</trkpt>
<trkpt lat="53.3489500" lon="18.4380652">
<ele>98</ele>
<time>2017-08-20T09:18:45Z</time>
</trkpt>
<trkpt lat="53.3489500" lon="18.4380652">
<ele>98</ele>
<time>2017-08-20T09:18:47Z</time>
</trkpt>
<trkpt lat="53.3489500" lon="18.4380652">
<ele>98</ele>
<time>2017-08-20T09:18:49Z</time>
</trkpt>
<trkpt lat="53.3489500" lon="18.4380652">
<ele>98</ele>
<time>2017-08-20T09:18:51Z</time>
</trkpt>
<trkpt lat="" lon="">
<ele></ele>
<time>2017-08-20TZ</time>
</trkpt>
</trkseg>
</trk>
<wpt lat="" lon="">
	<name></name>
	<desc></desc>
	<cmt></cmt>
	<photoid></photoid>
	<type></type>
</wpt>
</gpx>
